Salter Path, North Carolina
Current Conditions -  °F | °C
As of 10:06 PM on Tuesday 25 Nov 2014 (Local Time) from KNJM Reporting Station
Moderate Rain Moderate Rain  
Wind Chill: 63°   Ceiling: 1300
Heat Index: 63°   Visibility: 3mi
Dew Point: 62°   Wind: 9mph
Humidity: 97%   Direction: 350°N
Pressure: 30.05"   Gusts: NA
Location:  34.69°N, 76.89°W
Report Text: KNJM 260306Z 35008KT 3SM RA BR BKN013 OVC039 17/17 A3005 RMK AO2 P0002 T01720167
Loading
Personal Weather Stations






























Interactive Weather Map New forecast layout! Learn more

10-Day Weather Forecast

Advertisements
Track Severe Weather on mobile